CCA8691 ZGGG-ZBAD
Flight info
| Callsign | CCA8691 |
|---|---|
| Flight time | N/A |
| Altitude | 37100 |
| Route | MIKIP9 MIKIP A461 BUBDA/K0911S1160 W56 REBIS/K0915S1130 W56 ORODO/K0895S1160 W62 KARVU/K0895S1190 W62 IGDID/K0891S1160 W62 TEKIL G212 BELAX BELAX5L |
| Aircraft | B77W/H-SDE1E2E3FGHIJ2J3J4J5M1RWXY/LB1D1 |
Departure
| Time | 2026-05-04 13:18 |
|---|---|
| Airport | Guangzhou Baiyun International Airport (ZGGG) |
Arrival
| Time | N/A |
|---|---|
| Airport | Beijing Daxing International Airport (ZBAD) |
| Time | Latitude | Longitude | Altitude | Speed | Heading |
|---|---|---|---|---|---|
| 2026-05-04 12:24 | 23.38526 | 113.29105 | 57 ft | 0 kts | 65° |
| 2026-05-04 13:03 | 23.38522 | 113.29095 | 57 ft | 2 kts | 65° |
| 2026-05-04 13:03 | 23.38516 | 113.29080 | 57 ft | 2 kts | 65° |
| 2026-05-04 13:04 | 23.38512 | 113.29070 | 57 ft | 1 kts | 65° |
| 2026-05-04 13:04 | 23.38505 | 113.29056 | 57 ft | 2 kts | 52° |
| 2026-05-04 13:04 | 23.38494 | 113.29044 | 57 ft | 2 kts | 36° |
| 2026-05-04 13:04 | 23.38482 | 113.29037 | 57 ft | 2 kts | 22° |
| 2026-05-04 13:05 | 23.38467 | 113.29032 | 57 ft | 2 kts | 7° |
| 2026-05-04 13:05 | 23.38453 | 113.29031 | 57 ft | 2 kts | 353° |
| 2026-05-04 13:05 | 23.38439 | 113.29034 | 57 ft | 2 kts | 339° |
| 2026-05-04 13:05 | 23.38425 | 113.29042 | 57 ft | 2 kts | 325° |
| 2026-05-04 13:06 | 23.38414 | 113.29052 | 57 ft | 2 kts | 311° |
| 2026-05-04 13:06 | 23.38406 | 113.29065 | 57 ft | 2 kts | 296° |
| 2026-05-04 13:06 | 23.38401 | 113.29076 | 57 ft | 1 kts | 286° |
| 2026-05-04 13:06 | 23.38401 | 113.29077 | 57 ft | 0 kts | 286° |
| 2026-05-04 13:10 | 23.38404 | 113.29067 | 57 ft | 2 kts | 288° |
| 2026-05-04 13:10 | 23.38410 | 113.29047 | 57 ft | 2 kts | 288° |
| 2026-05-04 13:10 | 23.38423 | 113.29003 | 57 ft | 9 kts | 285° |
| 2026-05-04 13:11 | 23.38444 | 113.28918 | 57 ft | 13 kts | 284° |
| 2026-05-04 13:11 | 23.38463 | 113.28831 | 57 ft | 10 kts | 279° |
| 2026-05-04 13:11 | 23.38444 | 113.28760 | 57 ft | 10 kts | 224° |
| 2026-05-04 13:11 | 23.38382 | 113.28728 | 57 ft | 8 kts | 196° |
| 2026-05-04 13:12 | 23.38324 | 113.28711 | 57 ft | 8 kts | 193° |
| 2026-05-04 13:12 | 23.38259 | 113.28694 | 57 ft | 10 kts | 193° |
| 2026-05-04 13:12 | 23.38178 | 113.28673 | 57 ft | 12 kts | 194° |
| 2026-05-04 13:12 | 23.38089 | 113.28648 | 57 ft | 13 kts | 194° |
| 2026-05-04 13:13 | 23.37997 | 113.28623 | 57 ft | 13 kts | 194° |
| 2026-05-04 13:13 | 23.37908 | 113.28599 | 57 ft | 13 kts | 193° |
| 2026-05-04 13:13 | 23.37820 | 113.28576 | 57 ft | 12 kts | 194° |
| 2026-05-04 13:13 | 23.37740 | 113.28554 | 57 ft | 9 kts | 194° |
| 2026-05-04 13:14 | 23.37692 | 113.28515 | 57 ft | 8 kts | 245° |
| 2026-05-04 13:14 | 23.37685 | 113.28477 | 57 ft | 0 kts | 272° |
| 2026-05-04 13:15 | 23.37685 | 113.28474 | 57 ft | 1 kts | 273° |
| 2026-05-04 13:16 | 23.37692 | 113.28439 | 57 ft | 7 kts | 289° |
| 2026-05-04 13:16 | 23.37727 | 113.28388 | 57 ft | 8 kts | 333° |
| 2026-05-04 13:16 | 23.37784 | 113.28379 | 57 ft | 8 kts | 4° |
| 2026-05-04 13:16 | 23.37835 | 113.28391 | 57 ft | 6 kts | 12° |
| 2026-05-04 13:17 | 23.37917 | 113.28410 | 57 ft | 24 kts | 13° |
| 2026-05-04 13:17 | 23.38350 | 113.28529 | 57 ft | 103 kts | 14° |
| 2026-05-04 13:17 | 23.39283 | 113.28780 | 85 ft | 167 kts | 14° |
| 2026-05-04 13:17 | 23.40506 | 113.29099 | 572 ft | 187 kts | 14° |
| 2026-05-04 13:18 | 23.41730 | 113.29449 | 1606 ft | 183 kts | 17° |
| 2026-05-04 13:18 | 23.43002 | 113.29778 | 2151 ft | 198 kts | 6° |
| 2026-05-04 13:18 | 23.44440 | 113.29688 | 2680 ft | 216 kts | 353° |
| 2026-05-04 13:18 | 23.45996 | 113.29266 | 2995 ft | 241 kts | 343° |
| 2026-05-04 13:19 | 23.47596 | 113.28619 | 3012 ft | 249 kts | 340° |
| 2026-05-04 13:19 | 23.49271 | 113.27908 | 3400 ft | 264 kts | 340° |
| 2026-05-04 13:19 | 23.50975 | 113.27188 | 4437 ft | 264 kts | 339° |
| 2026-05-04 13:19 | 23.52750 | 113.26593 | 5229 ft | 272 kts | 353° |
| 2026-05-04 13:20 | 23.54646 | 113.26685 | 6143 ft | 276 kts | 6° |
| 2026-05-04 13:20 | 23.56550 | 113.27029 | 6985 ft | 283 kts | 8° |
| 2026-05-04 13:20 | 23.58491 | 113.27411 | 7814 ft | 288 kts | 7° |
| 2026-05-04 13:20 | 23.60484 | 113.27796 | 8657 ft | 293 kts | 6° |
| 2026-05-04 13:21 | 23.62503 | 113.28182 | 9504 ft | 297 kts | 5° |
| 2026-05-04 13:21 | 23.64551 | 113.28571 | 10309 ft | 302 kts | 5° |
| 2026-05-04 13:21 | 23.66688 | 113.28975 | 10861 ft | 318 kts | 5° |
| 2026-05-04 13:21 | 23.68970 | 113.29407 | 11403 ft | 335 kts | 5° |
| 2026-05-04 13:22 | 23.71306 | 113.29851 | 11932 ft | 352 kts | 5° |
| 2026-05-04 13:22 | 23.73792 | 113.30323 | 12484 ft | 368 kts | 5° |
| 2026-05-04 13:22 | 23.76356 | 113.30811 | 13080 ft | 382 kts | 5° |
| 2026-05-04 13:22 | 23.79004 | 113.31316 | 13678 ft | 397 kts | 5° |
| 2026-05-04 13:23 | 23.81771 | 113.31843 | 14327 ft | 410 kts | 5° |
| 2026-05-04 13:23 | 23.84638 | 113.32391 | 15114 ft | 418 kts | 5° |
| 2026-05-04 13:23 | 23.87476 | 113.32935 | 16079 ft | 421 kts | 4° |
| 2026-05-04 13:23 | 23.90350 | 113.33485 | 17039 ft | 422 kts | 4° |
| 2026-05-04 13:24 | 23.93258 | 113.34042 | 17932 ft | 425 kts | 4° |
| 2026-05-04 13:24 | 23.96236 | 113.34610 | 18748 ft | 431 kts | 4° |
| 2026-05-04 13:24 | 23.99351 | 113.35205 | 19506 ft | 438 kts | 4° |
| 2026-05-04 13:25 | 24.05562 | 113.36392 | 20879 ft | 453 kts | 4° |
| 2026-05-04 13:25 | 24.08681 | 113.36990 | 21643 ft | 458 kts | 4° |
| 2026-05-04 13:25 | 24.11832 | 113.37595 | 22353 ft | 463 kts | 4° |
| 2026-05-04 13:25 | 24.15027 | 113.38206 | 23025 ft | 469 kts | 4° |
| 2026-05-04 13:26 | 24.18296 | 113.38834 | 23624 ft | 476 kts | 4° |
| 2026-05-04 13:26 | 24.21578 | 113.39463 | 24290 ft | 481 kts | 4° |
| 2026-05-04 13:26 | 24.24934 | 113.40108 | 24951 ft | 487 kts | 3° |
| 2026-05-04 13:26 | 24.28267 | 113.40747 | 25559 ft | 493 kts | 3° |
| 2026-05-04 13:27 | 24.31695 | 113.41406 | 26193 ft | 499 kts | 3° |
| 2026-05-04 13:27 | 24.35103 | 113.41962 | 26835 ft | 499 kts | 358° |
| 2026-05-04 13:27 | 24.38597 | 113.42139 | 27455 ft | 500 kts | 354° |
| 2026-05-04 13:27 | 24.42086 | 113.42233 | 28072 ft | 505 kts | 354° |
| 2026-05-04 13:28 | 24.45610 | 113.42326 | 28741 ft | 509 kts | 354° |
| 2026-05-04 13:28 | 24.49180 | 113.42424 | 29342 ft | 514 kts | 353° |
| 2026-05-04 13:28 | 24.52768 | 113.42524 | 30067 ft | 515 kts | 353° |
| 2026-05-04 13:28 | 24.56296 | 113.42625 | 31039 ft | 510 kts | 353° |
| 2026-05-04 13:29 | 24.59825 | 113.42728 | 32047 ft | 503 kts | 353° |
| 2026-05-04 13:29 | 24.63394 | 113.42831 | 32923 ft | 499 kts | 353° |
| 2026-05-04 13:29 | 24.66903 | 113.42930 | 33688 ft | 497 kts | 353° |
| 2026-05-04 13:29 | 24.70371 | 113.43028 | 34485 ft | 494 kts | 353° |
| 2026-05-04 13:30 | 24.73794 | 113.43127 | 35376 ft | 488 kts | 353° |
| 2026-05-04 13:30 | 24.77142 | 113.43224 | 36278 ft | 480 kts | 353° |
| 2026-05-04 13:30 | 24.80506 | 113.43320 | 36980 ft | 476 kts | 353° |
| 2026-05-04 13:30 | 24.83819 | 113.43411 | 37204 ft | 481 kts | 352° |
| 2026-05-04 13:31 | 24.90528 | 113.43598 | 37210 ft | 479 kts | 353° |
| 2026-05-04 13:31 | 24.97212 | 113.43787 | 37219 ft | 482 kts | 352° |
| 2026-05-04 13:32 | 25.03929 | 113.43978 | 37221 ft | 481 kts | 353° |
| 2026-05-04 13:32 | 25.10563 | 113.44169 | 37224 ft | 478 kts | 352° |
| 2026-05-04 13:33 | 25.17262 | 113.44359 | 37228 ft | 482 kts | 352° |
| 2026-05-04 13:33 | 25.23856 | 113.44547 | 37228 ft | 482 kts | 352° |
| 2026-05-04 13:34 | 25.30600 | 113.44741 | 37232 ft | 481 kts | 352° |
| 2026-05-04 13:34 | 25.37295 | 113.44933 | 37231 ft | 481 kts | 352° |
| 2026-05-04 13:35 | 25.47297 | 113.45220 | 37239 ft | 482 kts | 352° |
| 2026-05-04 13:36 | 25.53085 | 113.45387 | 37234 ft | 480 kts | 352° |
| 2026-05-04 13:36 | 25.59034 | 113.45557 | 37236 ft | 483 kts | 352° |
| 2026-05-04 13:37 | 25.65711 | 113.45752 | 37242 ft | 479 kts | 352° |
| 2026-05-04 13:37 | 25.72370 | 113.45943 | 37229 ft | 479 kts | 352° |
| 2026-05-04 13:38 | 25.79075 | 113.46137 | 37234 ft | 479 kts | 352° |
| 2026-05-04 13:38 | 25.85760 | 113.46330 | 37235 ft | 480 kts | 352° |
| 2026-05-04 13:39 | 25.92409 | 113.46244 | 37225 ft | 477 kts | 348° |
| 2026-05-04 13:39 | 25.99064 | 113.45946 | 37204 ft | 476 kts | 348° |
| 2026-05-04 13:40 | 26.05647 | 113.45673 | 37197 ft | 474 kts | 348° |
| 2026-05-04 13:40 | 26.12270 | 113.45405 | 37207 ft | 476 kts | 348° |
| 2026-05-04 13:41 | 26.18921 | 113.45144 | 37218 ft | 475 kts | 348° |
| 2026-05-04 13:41 | 26.25327 | 113.44894 | 37218 ft | 475 kts | 348° |
| 2026-05-04 13:42 | 26.35261 | 113.44510 | 37208 ft | 476 kts | 348° |
| 2026-05-04 13:42 | 26.41919 | 113.44254 | 37201 ft | 475 kts | 348° |
| 2026-05-04 13:43 | 26.48530 | 113.43999 | 37192 ft | 476 kts | 348° |
| 2026-05-04 13:43 | 26.55160 | 113.43744 | 37182 ft | 475 kts | 348° |
| 2026-05-04 13:44 | 26.61739 | 113.43492 | 37176 ft | 474 kts | 348° |
| 2026-05-04 13:44 | 26.68371 | 113.43236 | 37175 ft | 477 kts | 348° |
| 2026-05-04 13:45 | 26.74985 | 113.42983 | 37169 ft | 475 kts | 348° |
| 2026-05-04 13:45 | 26.81655 | 113.42726 | 37165 ft | 476 kts | 348° |
| 2026-05-04 13:46 | 26.88269 | 113.42471 | 37165 ft | 476 kts | 348° |
| 2026-05-04 13:46 | 26.94901 | 113.42217 | 37173 ft | 475 kts | 348° |
| 2026-05-04 13:47 | 27.01508 | 113.41962 | 37176 ft | 474 kts | 348° |
| 2026-05-04 13:47 | 27.08150 | 113.41704 | 37170 ft | 477 kts | 348° |
| 2026-05-04 13:48 | 27.14795 | 113.41448 | 37164 ft | 474 kts | 348° |
| 2026-05-04 13:48 | 27.21378 | 113.41193 | 37165 ft | 473 kts | 348° |
| 2026-05-04 13:49 | 27.27998 | 113.40935 | 37162 ft | 476 kts | 348° |
| 2026-05-04 13:49 | 27.34606 | 113.40709 | 37162 ft | 474 kts | 350° |
| 2026-05-04 13:50 | 27.41303 | 113.40855 | 37163 ft | 478 kts | 351° |
| 2026-05-04 13:50 | 27.48106 | 113.41018 | 37161 ft | 478 kts | 351° |
| 2026-05-04 13:51 | 27.54792 | 113.41165 | 37157 ft | 477 kts | 351° |
| 2026-05-04 13:51 | 27.61459 | 113.41304 | 37159 ft | 476 kts | 351° |
| 2026-05-04 13:52 | 27.71557 | 113.41836 | 37160 ft | 484 kts | 354° |
| 2026-05-04 13:53 | 27.78336 | 113.42486 | 37168 ft | 480 kts | 354° |
| 2026-05-04 13:53 | 27.85025 | 113.43103 | 37159 ft | 482 kts | 354° |
| 2026-05-04 13:54 | 27.95092 | 113.44012 | 37163 ft | 480 kts | 354° |
| 2026-05-04 13:55 | 28.05091 | 113.44889 | 37168 ft | 483 kts | 354° |
| 2026-05-04 13:55 | 28.15169 | 113.45693 | 37161 ft | 479 kts | 353° |
| 2026-05-04 13:56 | 28.21824 | 113.46157 | 37160 ft | 481 kts | 353° |
| 2026-05-04 13:57 | 28.31868 | 113.46875 | 37158 ft | 479 kts | 353° |
| 2026-05-04 13:58 | 28.45106 | 113.47823 | 37162 ft | 477 kts | 353° |
| 2026-05-04 13:58 | 28.55084 | 113.48535 | 37164 ft | 476 kts | 353° |
| 2026-05-04 13:59 | 28.61719 | 113.49007 | 37163 ft | 479 kts | 353° |
| 2026-05-04 14:00 | 28.71670 | 113.49721 | 37159 ft | 477 kts | 353° |
| 2026-05-04 14:00 | 28.81565 | 113.50433 | 37162 ft | 474 kts | 353° |
| 2026-05-04 14:01 | 28.88149 | 113.50905 | 37166 ft | 475 kts | 353° |
| 2026-05-04 14:02 | 28.98068 | 113.51618 | 37168 ft | 473 kts | 353° |
| 2026-05-04 14:02 | 29.04642 | 113.52092 | 37172 ft | 474 kts | 353° |
| 2026-05-04 14:03 | 29.11275 | 113.52571 | 37179 ft | 472 kts | 353° |
| 2026-05-04 14:03 | 29.17862 | 113.53044 | 37185 ft | 477 kts | 353° |
| 2026-05-04 14:04 | 29.27795 | 113.53764 | 37184 ft | 478 kts | 353° |
| 2026-05-04 14:04 | 29.34432 | 113.54314 | 37177 ft | 476 kts | 354° |
| 2026-05-04 14:05 | 29.44365 | 113.55183 | 37156 ft | 478 kts | 354° |
| 2026-05-04 14:06 | 29.50997 | 113.55763 | 37152 ft | 476 kts | 354° |
| 2026-05-04 14:06 | 29.57612 | 113.56338 | 37148 ft | 477 kts | 354° |
| 2026-05-04 14:07 | 29.64201 | 113.56911 | 37139 ft | 479 kts | 354° |
| 2026-05-04 14:07 | 29.70846 | 113.57490 | 37138 ft | 477 kts | 354° |
| 2026-05-04 14:08 | 29.77478 | 113.58067 | 37132 ft | 479 kts | 354° |
| 2026-05-04 14:08 | 29.84144 | 113.58650 | 37131 ft | 478 kts | 354° |
| 2026-05-04 14:09 | 29.94114 | 113.59829 | 37123 ft | 488 kts | 3° |
| 2026-05-04 14:09 | 29.97412 | 113.61015 | 37121 ft | 504 kts | 12° |
| 2026-05-04 14:10 | 30.03883 | 113.64194 | 37126 ft | 505 kts | 14° |
| 2026-05-04 14:10 | 30.10360 | 113.67436 | 37102 ft | 510 kts | 14° |
| 2026-05-04 14:11 | 30.16819 | 113.70675 | 37115 ft | 505 kts | 14° |